Time;durP1;ratioP1;P1;durP2;ratioP2;P2;SDS_P1;SDS_P2;PMS_P1;PMS_P2;Temp;Humidity;BMP_temperature;BMP_pressure;BME280_temperature;BME280_humidity;BME280_pressure;Samples;Min_cycle;Max_cycle;Signal;HPM_P1;HPM_P2
2024/01/24 00:00:46;;;;;;;14.20;6.87;;;12.90;95.10;;;;;;795060;180;26480;-78
2024/01/24 00:03:12;;;;;;;16.87;6.97;;;13.00;95.00;;;;;;793878;180;26496;-79
2024/01/24 00:05:39;;;;;;;30.20;14.57;;;13.00;94.80;;;;;;790202;180;26464;-79
2024/01/24 00:08:06;;;;;;;20.27;9.00;;;13.00;94.80;;;;;;791497;180;26622;-79
2024/01/24 00:10:32;;;;;;;76.13;28.70;;;12.90;95.00;;;;;;796976;180;26956;-79
2024/01/24 00:12:59;;;;;;;45.23;18.53;;;13.00;95.20;;;;;;793388;180;26476;-78
2024/01/24 00:15:25;;;;;;;68.73;28.93;;;13.40;94.50;;;;;;796302;180;28093;-79
2024/01/24 00:17:52;;;;;;;32.47;14.33;;;13.50;94.40;;;;;;791884;177;26445;-79
2024/01/24 00:20:19;;;;;;;18.53;8.27;;;13.40;94.50;;;;;;784819;183;27003;-78
2024/01/24 00:22:45;;;;;;;45.10;22.43;;;13.40;94.50;;;;;;789867;180;26548;-78
2024/01/24 00:25:19;;;;;;;14.43;6.67;;;13.50;94.40;;;;;;797072;176;26455;-79
2024/01/24 00:27:45;;;;;;;18.43;8.63;;;13.30;94.70;;;;;;796535;178;26460;-79
2024/01/24 00:30:12;;;;;;;24.20;11.93;;;13.40;94.80;;;;;;790853;180;26444;-80
2024/01/24 00:32:39;;;;;;;13.20;6.73;;;13.40;94.80;;;;;;780527;182;26423;-79
2024/01/24 00:35:05;;;;;;;10.37;5.27;;;13.40;94.50;;;;;;787848;181;26487;-80
2024/01/24 00:37:32;;;;;;;13.40;6.27;;;13.40;94.70;;;;;;777277;185;26629;-80
2024/01/24 00:39:59;;;;;;;9.00;4.70;;;13.50;94.40;;;;;;789297;180;26476;-80
2024/01/24 00:42:25;;;;;;;11.13;6.10;;;13.50;94.50;;;;;;775993;181;26454;-80
2024/01/24 00:44:52;;;;;;;9.40;4.90;;;13.40;94.40;;;;;;776094;182;27868;-80
2024/01/24 00:47:18;;;;;;;8.60;3.90;;;13.50;94.40;;;;;;775676;186;26469;-80
2024/01/24 00:49:45;;;;;;;10.70;2.70;;;13.50;94.00;;;;;;774804;186;26511;-80
2024/01/24 00:52:12;;;;;;;7.87;2.67;;;13.70;93.40;;;;;;775198;186;26490;-79
2024/01/24 00:54:38;;;;;;;6.57;3.17;;;13.70;93.60;;;;;;775484;186;26488;-80
2024/01/24 00:57:05;;;;;;;6.13;2.23;;;13.60;93.60;;;;;;790226;181;26459;-80
2024/01/24 00:59:31;;;;;;;8.83;2.50;;;13.60;93.40;;;;;;788833;180;26454;-80
2024/01/24 01:01:58;;;;;;;9.40;3.33;;;13.70;93.20;;;;;;796594;180;26454;-80
2024/01/24 01:04:24;;;;;;;7.20;4.17;;;13.70;93.10;;;;;;799133;180;26491;-80
2024/01/24 01:06:51;;;;;;;16.23;6.47;;;13.90;92.70;;;;;;798341;178;26545;-80
2024/01/24 01:09:18;;;;;;;8.80;4.00;;;13.90;92.70;;;;;;798562;180;26507;-79
2024/01/24 01:11:44;;;;;;;8.57;2.43;;;13.80;92.90;;;;;;796208;180;26504;-80
2024/01/24 01:14:11;;;;;;;6.70;2.40;;;13.70;93.10;;;;;;783513;181;26456;-81
2024/01/24 01:16:37;;;;;;;5.87;2.47;;;13.80;93.00;;;;;;784026;180;26622;-78
2024/01/24 01:19:04;;;;;;;55.87;20.70;;;13.80;93.30;;;;;;775496;180;26503;-79
2024/01/24 01:21:31;;;;;;;42.83;14.77;;;13.70;93.10;;;;;;791393;180;26440;-78
2024/01/24 01:23:57;;;;;;;16.50;8.30;;;13.80;93.10;;;;;;790166;181;26451;-79
2024/01/24 01:26:24;;;;;;;31.27;13.60;;;13.80;93.20;;;;;;794476;181;26443;-78
2024/01/24 01:28:50;;;;;;;20.83;7.83;;;13.70;93.40;;;;;;794653;180;26466;-80
2024/01/24 01:31:17;;;;;;;13.30;5.73;;;13.80;93.30;;;;;;788982;177;26458;-78
2024/01/24 01:33:44;;;;;;;4.80;2.67;;;13.90;93.20;;;;;;774398;186;26450;-81
2024/01/24 01:36:10;;;;;;;9.07;3.17;;;14.00;93.00;;;;;;774336;186;27093;-79
2024/01/24 01:38:37;;;;;;;8.13;2.97;;;13.80;93.10;;;;;;774409;182;26467;-80
2024/01/24 01:41:04;;;;;;;6.07;2.00;;;13.70;93.80;;;;;;775673;182;28972;-79
2024/01/24 01:43:30;;;;;;;5.63;3.40;;;13.90;93.10;;;;;;783091;181;26443;-78
2024/01/24 01:45:57;;;;;;;8.97;3.60;;;13.90;93.10;;;;;;791684;180;26451;-79
2024/01/24 01:48:23;;;;;;;29.53;11.47;;;13.90;93.10;;;;;;784324;180;26479;-78
2024/01/24 01:50:50;;;;;;;7.60;3.23;;;14.10;92.50;;;;;;789869;181;26789;-79
2024/01/24 01:53:16;;;;;;;7.90;3.93;;;14.10;92.30;;;;;;793367;180;26451;-78
2024/01/24 01:55:43;;;;;;;16.97;6.20;;;14.20;92.50;;;;;;774718;186;26486;-78
2024/01/24 01:58:10;;;;;;;53.93;21.20;;;14.10;92.40;;;;;;783880;183;26545;-77
2024/01/24 02:00:36;;;;;;;12.30;5.60;;;14.10;92.40;;;;;;783938;180;26449;-79
2024/01/24 02:03:03;;;;;;;22.43;9.50;;;14.00;92.60;;;;;;788268;179;26995;-79
2024/01/24 02:05:30;;;;;;;13.07;4.93;;;14.00;92.60;;;;;;793586;181;26462;-80
2024/01/24 02:07:56;;;;;;;7.37;3.47;;;14.00;92.90;;;;;;779996;181;26522;-80
2024/01/24 02:10:23;;;;;;;4.30;2.77;;;14.00;92.50;;;;;;786539;181;26425;-79
2024/01/24 02:12:50;;;;;;;11.90;3.63;;;14.00;92.60;;;;;;795193;180;26442;-82
2024/01/24 02:15:16;;;;;;;13.67;5.30;;;14.10;92.60;;;;;;794927;181;26467;-79
2024/01/24 02:17:43;;;;;;;84.53;27.60;;;14.00;92.50;;;;;;787242;180;26454;-78
2024/01/24 02:20:09;;;;;;;8.07;3.20;;;14.00;92.70;;;;;;788697;180;26438;-80
2024/01/24 02:22:36;;;;;;;57.43;22.50;;;14.00;93.00;;;;;;777509;181;26445;-80
2024/01/24 02:25:03;;;;;;;8.53;4.97;;;14.00;92.90;;;;;;779833;181;26451;-80
2024/01/24 02:27:29;;;;;;;6.23;4.00;;;14.00;92.70;;;;;;791791;181;26443;-80
2024/01/24 02:29:57;;;;;;;6.60;4.33;;;14.00;92.90;;;;;;790413;181;26442;-77
2024/01/24 02:32:23;;;;;;;6.73;2.57;;;14.10;92.50;;;;;;774419;186;26454;-79
2024/01/24 02:34:49;;;;;;;3.57;1.83;;;14.10;92.50;;;;;;773068;186;26522;-79
2024/01/24 02:37:16;;;;;;;6.43;2.43;;;14.10;92.40;;;;;;773600;182;26453;-76
2024/01/24 02:39:42;;;;;;;4.70;2.47;;;14.10;92.60;;;;;;779973;180;27011;-78
2024/01/24 02:42:09;;;;;;;3.67;2.13;;;14.10;92.50;;;;;;792281;177;26471;-79
2024/01/24 02:44:36;;;;;;;3.00;2.03;;;14.10;92.30;;;;;;785817;181;26459;-79
2024/01/24 02:47:02;;;;;;;4.00;2.10;;;14.20;92.30;;;;;;787986;180;26606;-78
2024/01/24 02:49:29;;;;;;;2.30;1.87;;;14.20;92.10;;;;;;792910;180;26471;-79
2024/01/24 02:51:56;;;;;;;4.37;1.87;;;14.30;92.00;;;;;;785120;181;26650;-77
2024/01/24 02:54:22;;;;;;;5.37;1.73;;;14.20;92.10;;;;;;775840;181;26466;-79
2024/01/24 02:56:49;;;;;;;3.50;2.07;;;14.30;92.40;;;;;;775542;182;26474;-79
2024/01/24 02:59:15;;;;;;;2.87;1.70;;;14.30;91.70;;;;;;775891;182;26452;-78
2024/01/24 03:01:42;;;;;;;3.80;1.60;;;14.40;91.80;;;;;;788297;181;26412;-81
2024/01/24 03:04:09;;;;;;;4.07;1.63;;;14.50;91.60;;;;;;781761;181;27045;-80
2024/01/24 03:06:35;;;;;;;2.43;1.63;;;14.50;91.50;;;;;;775354;181;26482;-78
2024/01/24 03:09:03;;;;;;;4.60;1.60;;;14.40;91.60;;;;;;775368;181;26454;-80
2024/01/24 03:11:28;;;;;;;1.80;1.63;;;14.50;91.40;;;;;;783546;181;26447;-79
2024/01/24 03:13:55;;;;;;;2.53;1.97;;;14.50;91.40;;;;;;793367;180;26447;-79
2024/01/24 03:16:22;;;;;;;1.80;1.40;;;14.60;91.30;;;;;;797910;180;26465;-80
2024/01/24 03:18:48;;;;;;;8.20;3.10;;;14.50;91.30;;;;;;798651;180;26442;-76
2024/01/24 03:21:15;;;;;;;5.70;2.60;;;14.50;91.50;;;;;;779154;180;26443;-78
2024/01/24 03:23:42;;;;;;;18.33;9.83;;;14.40;91.60;;;;;;774739;180;26488;-79
2024/01/24 03:26:08;;;;;;;1.93;1.70;;;14.50;91.40;;;;;;774317;186;26470;-78
2024/01/24 03:28:35;;;;;;;2.00;1.77;;;14.60;91.70;;;;;;777404;180;27073;-79
2024/01/24 03:31:01;;;;;;;33.87;10.17;;;14.50;91.50;;;;;;778322;180;26463;-79
2024/01/24 03:33:28;;;;;;;14.47;5.67;;;14.60;91.50;;;;;;783944;180;26439;-80
2024/01/24 03:35:54;;;;;;;7.23;3.93;;;14.60;91.40;;;;;;774294;186;26488;-80
2024/01/24 03:38:21;;;;;;;3.93;1.97;;;14.60;91.60;;;;;;774641;186;26455;-76
2024/01/24 03:40:48;;;;;;;1.40;1.30;;;14.60;91.80;;;;;;792615;181;26447;-79
2024/01/24 03:43:14;;;;;;;1.67;1.13;;;14.60;91.90;;;;;;794709;181;26423;-81
2024/01/24 03:45:41;;;;;;;1.17;1.07;;;14.60;91.80;;;;;;791003;181;26463;-79
2024/01/24 03:48:07;;;;;;;2.00;1.10;;;14.60;91.80;;;;;;785043;180;26475;-80
2024/01/24 03:50:34;;;;;;;1.30;1.10;;;14.50;92.10;;;;;;792420;181;26451;-79
2024/01/24 03:53:01;;;;;;;1.50;1.37;;;14.50;92.00;;;;;;784831;181;26444;-79
2024/01/24 03:55:27;;;;;;;1.10;1.10;;;14.50;92.20;;;;;;777752;182;26436;-81
2024/01/24 03:57:54;;;;;;;1.20;1.10;;;14.50;92.20;;;;;;793263;180;26448;-80
2024/01/24 04:00:20;;;;;;;1.47;1.10;;;14.40;92.40;;;;;;791847;181;26590;-79
2024/01/24 04:02:47;;;;;;;1.33;1.20;;;14.60;92.00;;;;;;779619;181;26450;-79
2024/01/24 04:05:14;;;;;;;1.70;1.17;;;14.40;92.40;;;;;;784339;180;26468;-80
2024/01/24 04:07:40;;;;;;;0.90;0.90;;;14.40;93.00;;;;;;782677;178;26504;-79
2024/01/24 04:10:08;;;;;;;1.00;1.00;;;14.50;92.40;;;;;;789367;181;26463;-80
2024/01/24 04:12:34;;;;;;;1.43;1.10;;;14.50;92.40;;;;;;790258;181;26435;-79
2024/01/24 04:15:01;;;;;;;1.20;1.10;;;14.60;92.50;;;;;;790429;181;26613;-80
2024/01/24 04:17:27;;;;;;;2.00;1.00;;;14.50;92.40;;;;;;776294;181;26451;-79
2024/01/24 04:19:54;;;;;;;1.20;1.10;;;14.50;92.50;;;;;;780080;181;26463;-80
2024/01/24 04:22:21;;;;;;;1.00;1.00;;;14.50;92.40;;;;;;777514;181;26450;-79
2024/01/24 04:24:47;;;;;;;1.57;0.90;;;14.60;92.40;;;;;;793925;181;26503;-82
2024/01/24 04:27:14;;;;;;;1.50;1.17;;;14.60;92.70;;;;;;783571;181;26501;-80
2024/01/24 04:29:43;;;;;;;1.17;1.10;;;14.50;92.80;;;;;;795110;180;26455;-79
2024/01/24 04:32:10;;;;;;;1.00;1.00;;;14.50;92.80;;;;;;792641;181;26432;-80
2024/01/24 04:34:36;;;;;;;1.20;1.10;;;14.50;92.90;;;;;;791625;181;26448;-80
2024/01/24 04:37:03;;;;;;;1.10;0.93;;;14.40;93.60;;;;;;792366;181;26451;-79
2024/01/24 04:39:30;;;;;;;2.00;1.03;;;14.40;93.50;;;;;;794377;181;26456;-80
2024/01/24 04:41:56;;;;;;;1.67;1.00;;;14.40;93.40;;;;;;794462;181;26777;-80
2024/01/24 04:44:23;;;;;;;1.20;1.10;;;14.30;93.60;;;;;;794076;179;26458;-76
2024/01/24 04:46:49;;;;;;;1.37;1.07;;;14.30;93.70;;;;;;793004;181;26499;-78
2024/01/24 04:49:16;;;;;;;1.37;1.20;;;14.30;93.90;;;;;;793851;181;26447;-79
2024/01/24 04:51:43;;;;;;;1.10;1.10;;;14.20;94.00;;;;;;794884;177;26440;-78
2024/01/24 04:54:10;;;;;;;1.47;1.13;;;14.20;94.10;;;;;;793299;180;26434;-79
2024/01/24 04:56:38;;;;;;;1.63;1.37;;;14.00;94.90;;;;;;778213;181;26466;-79
2024/01/24 04:59:02;;;;;;;2.27;1.27;;;13.90;95.40;;;;;;774231;186;26477;-79
2024/01/24 05:01:29;;;;;;;1.63;1.00;;;13.90;95.70;;;;;;774243;186;26446;-78
2024/01/24 05:03:56;;;;;;;1.17;1.07;;;13.90;95.00;;;;;;773658;186;26790;-79
2024/01/24 05:06:22;;;;;;;1.67;1.27;;;13.90;94.90;;;;;;773802;186;26474;-79
2024/01/24 05:08:49;;;;;;;1.10;1.10;;;13.70;95.20;;;;;;779145;180;26467;-77
2024/01/24 05:11:15;;;;;;;1.30;1.20;;;13.80;94.20;;;;;;781009;180;26458;-80
2024/01/24 05:13:42;;;;;;;1.97;1.10;;;13.80;94.20;;;;;;787656;180;26453;-79
2024/01/24 05:16:09;;;;;;;1.80;1.23;;;13.80;93.90;;;;;;784376;179;26499;-78
2024/01/24 05:18:35;;;;;;;2.00;1.33;;;13.80;93.80;;;;;;794559;181;26443;-80
2024/01/24 05:21:02;;;;;;;3.40;1.40;;;13.80;93.50;;;;;;793296;181;26435;-79
2024/01/24 05:23:28;;;;;;;1.40;1.30;;;13.90;93.00;;;;;;795935;180;26468;-80
2024/01/24 05:25:55;;;;;;;1.73;1.20;;;13.90;93.90;;;;;;794181;181;26436;-80
2024/01/24 05:28:22;;;;;;;2.50;1.77;;;13.90;93.00;;;;;;794719;181;26542;-78
2024/01/24 05:30:48;;;;;;;1.40;1.30;;;13.80;93.30;;;;;;778293;181;26989;-79
2024/01/24 05:33:15;;;;;;;1.93;1.50;;;13.80;93.50;;;;;;777151;181;26438;-81
2024/01/24 05:35:41;;;;;;;1.60;1.40;;;13.80;94.80;;;;;;775231;181;26496;-77
2024/01/24 05:38:08;;;;;;;1.60;1.30;;;13.60;95.80;;;;;;784231;180;26489;-76
2024/01/24 05:40:35;;;;;;;3.87;1.40;;;13.50;95.90;;;;;;784276;180;26459;-78
2024/01/24 05:43:02;;;;;;;4.90;1.87;;;13.40;96.10;;;;;;781081;180;26450;-78
2024/01/24 05:45:28;;;;;;;1.73;1.60;;;13.30;95.30;;;;;;786307;181;26640;-79
2024/01/24 05:47:54;;;;;;;3.83;1.40;;;13.20;94.50;;;;;;777311;181;26488;-79
2024/01/24 05:50:22;;;;;;;3.10;1.40;;;13.20;93.60;;;;;;789448;179;26436;-79
2024/01/24 05:52:48;;;;;;;2.57;1.50;;;13.20;92.70;;;;;;786603;180;26470;-75
2024/01/24 05:55:15;;;;;;;5.03;1.67;;;13.30;92.10;;;;;;787934;180;26471;-77
2024/01/24 05:57:41;;;;;;;3.17;1.60;;;13.20;91.80;;;;;;786086;180;26442;-77
2024/01/24 06:00:09;;;;;;;9.37;2.00;;;13.20;91.10;;;;;;787808;181;26483;-78
2024/01/24 06:02:36;;;;;;;4.87;1.67;;;13.20;90.30;;;;;;779862;180;26569;-77
2024/01/24 06:05:03;;;;;;;9.87;2.20;;;13.10;90.40;;;;;;777344;180;26491;-77
2024/01/24 06:07:30;;;;;;;7.07;2.10;;;13.10;90.50;;;;;;790649;180;28129;-78
2024/01/24 06:09:57;;;;;;;6.50;1.93;;;13.10;90.00;;;;;;785240;180;26485;-79
2024/01/24 06:12:23;;;;;;;6.77;1.97;;;13.20;88.90;;;;;;788272;180;26618;-78
2024/01/24 06:14:51;;;;;;;8.43;2.20;;;13.10;88.90;;;;;;780117;178;26464;-77
2024/01/24 06:17:16;;;;;;;6.53;2.13;;;13.00;90.10;;;;;;784335;180;27024;-78
2024/01/24 06:19:43;;;;;;;10.37;2.40;;;12.90;90.90;;;;;;789115;180;26511;-78
2024/01/24 06:22:10;;;;;;;9.13;3.47;;;12.90;90.30;;;;;;790821;180;26483;-78
2024/01/24 06:24:36;;;;;;;8.27;2.17;;;12.90;90.90;;;;;;784111;180;26446;-77
2024/01/24 06:27:03;;;;;;;11.03;3.43;;;13.00;90.90;;;;;;786386;175;27700;-79
2024/01/24 06:29:33;;;;;;;10.23;2.80;;;13.10;90.30;;;;;;793506;180;27683;-79
2024/01/24 06:32:07;;;;;;;11.00;2.60;;;13.20;89.90;;;;;;795918;180;26452;-80
2024/01/24 06:34:38;;;;;;;13.30;2.30;;;13.20;89.90;;;;;;794873;173;26502;-79
2024/01/24 06:37:08;;;;;;;13.33;4.27;;;13.20;89.20;;;;;;786023;174;26513;-79
2024/01/24 06:39:38;;;;;;;12.23;2.77;;;13.20;88.90;;;;;;775142;183;27033;-79
2024/01/24 06:42:05;;;;;;;21.33;4.20;;;13.10;88.40;;;;;;777953;183;26519;-79
2024/01/24 06:44:40;;;;;;;11.80;3.40;;;13.20;88.30;;;;;;775697;183;26524;-80
2024/01/24 06:49:53;;;;;;;15.80;3.07;;;13.10;89.40;;;;;;740763;174;26485;-80
2024/01/24 06:52:22;;;;;;;23.40;4.67;;;12.90;88.40;;;;;;791313;180;26478;-80
2024/01/24 06:54:49;;;;;;;21.63;4.87;;;13.00;87.40;;;;;;779371;180;26533;-75
2024/01/24 06:57:16;;;;;;;23.50;4.60;;;12.90;88.10;;;;;;770527;184;26597;-81
2024/01/24 06:59:46;;;;;;;27.27;6.93;;;12.80;88.10;;;;;;782222;183;26504;-78
2024/01/24 07:02:16;;;;;;;23.47;4.97;;;12.80;88.50;;;;;;781837;183;26492;-79
2024/01/24 07:04:42;;;;;;;17.97;3.23;;;12.70;87.10;;;;;;772537;181;26513;-80
2024/01/24 07:07:10;;;;;;;24.53;3.97;;;12.70;86.30;;;;;;770365;185;26497;-78
2024/01/24 07:09:39;;;;;;;35.67;5.63;;;12.80;85.80;;;;;;772088;184;26490;-80
2024/01/24 07:12:12;;;;;;;28.77;4.83;;;12.70;87.70;;;;;;780539;184;26457;-79
2024/01/24 07:14:39;;;;;;;33.37;5.70;;;12.60;86.50;;;;;;781206;183;26538;-80
2024/01/24 07:17:05;;;;;;;29.37;6.30;;;12.70;88.50;;;;;;776149;184;26471;-79
2024/01/24 07:19:32;;;;;;;37.87;4.93;;;12.70;87.00;;;;;;772286;186;26504;-79
2024/01/24 07:21:58;;;;;;;25.83;4.93;;;12.60;86.60;;;;;;775134;184;27083;-77
2024/01/24 07:24:25;;;;;;;35.93;5.63;;;12.50;87.40;;;;;;781999;184;26575;-80
2024/01/24 07:26:52;;;;;;;32.00;4.90;;;12.60;88.50;;;;;;778350;181;28202;-79
2024/01/24 07:29:19;;;;;;;31.17;5.57;;;12.60;87.70;;;;;;776070;184;26471;-78
2024/01/24 07:31:45;;;;;;;31.70;5.93;;;12.50;89.30;;;;;;779796;181;26470;-78
2024/01/24 07:34:11;;;;;;;23.73;4.43;;;12.60;89.20;;;;;;777709;184;26481;-79
2024/01/24 07:36:38;;;;;;;21.10;4.70;;;12.50;87.60;;;;;;772883;180;26660;-80
2024/01/24 07:39:06;;;;;;;30.00;6.87;;;12.50;87.20;;;;;;776287;183;27031;-79
2024/01/24 07:41:31;;;;;;;33.87;6.23;;;12.60;86.80;;;;;;775904;183;26465;-80
2024/01/24 07:43:59;;;;;;;39.83;7.23;;;12.60;87.10;;;;;;779777;182;26470;-80
2024/01/24 07:46:25;;;;;;;35.83;6.60;;;12.50;87.80;;;;;;778923;180;26529;-77
2024/01/24 07:48:51;;;;;;;28.80;5.30;;;12.60;88.00;;;;;;780809;183;26517;-80
2024/01/24 07:51:18;;;;;;;35.47;5.33;;;12.60;87.60;;;;;;774414;183;26470;-80
2024/01/24 07:53:44;;;;;;;18.67;4.00;;;12.60;86.70;;;;;;777973;183;26490;-81
2024/01/24 07:56:11;;;;;;;24.30;4.73;;;12.70;86.40;;;;;;775872;183;27086;-80
2024/01/24 07:58:37;;;;;;;30.63;5.37;;;12.70;85.90;;;;;;780099;183;26659;-80
2024/01/24 08:01:05;;;;;;;34.33;5.47;;;12.60;86.20;;;;;;777549;181;27076;-80
2024/01/24 08:03:30;;;;;;;30.60;7.23;;;12.60;87.30;;;;;;778030;183;26466;-77
2024/01/24 08:05:57;;;;;;;32.50;5.33;;;12.60;86.50;;;;;;773805;181;26624;-79
2024/01/24 08:08:24;;;;;;;33.03;5.73;;;12.60;86.40;;;;;;775166;182;27009;-79
2024/01/24 08:10:50;;;;;;;41.43;5.60;;;12.70;85.20;;;;;;777977;183;26469;-76
2024/01/24 08:13:17;;;;;;;33.67;4.30;;;12.70;85.30;;;;;;776647;184;26538;-80
2024/01/24 08:15:46;;;;;;;39.27;6.97;;;12.60;85.00;;;;;;779897;183;26485;-77
2024/01/24 08:18:11;;;;;;;26.33;4.83;;;12.60;85.70;;;;;;776971;183;26493;-79
2024/01/24 08:20:38;;;;;;;31.30;5.20;;;12.60;85.00;;;;;;776206;182;26559;-78
2024/01/24 08:23:04;;;;;;;40.43;7.17;;;12.60;84.90;;;;;;776982;183;26483;-79
2024/01/24 08:25:30;;;;;;;30.43;5.90;;;12.50;85.10;;;;;;777571;183;26490;-79
2024/01/24 08:27:57;;;;;;;35.53;5.43;;;12.60;85.10;;;;;;779153;183;26564;-76
2024/01/24 08:30:24;;;;;;;38.53;6.23;;;12.60;84.50;;;;;;781397;183;27052;-80
2024/01/24 08:32:51;;;;;;;37.70;5.70;;;12.50;84.40;;;;;;772932;183;26534;-79
2024/01/24 08:35:18;;;;;;;37.03;6.23;;;12.60;85.00;;;;;;776882;183;26489;-81
2024/01/24 08:37:44;;;;;;;41.47;7.23;;;12.50;84.70;;;;;;777778;183;26486;-78
2024/01/24 08:40:11;;;;;;;40.57;6.70;;;12.50;84.60;;;;;;774884;180;26698;-80
2024/01/24 08:42:40;;;;;;;45.47;7.30;;;12.60;83.50;;;;;;775527;181;27037;-80
2024/01/24 08:45:05;;;;;;;53.17;7.37;;;12.50;84.00;;;;;;778713;184;28104;-80
2024/01/24 08:47:32;;;;;;;41.23;8.13;;;12.50;83.30;;;;;;780770;180;26524;-80
2024/01/24 08:49:59;;;;;;;42.40;7.30;;;12.50;83.30;;;;;;783726;181;26525;-77
2024/01/24 08:52:26;;;;;;;50.07;7.80;;;12.50;83.80;;;;;;783261;179;26554;-81
2024/01/24 08:54:52;;;;;;;54.10;7.77;;;12.50;83.00;;;;;;778969;182;26474;-80
2024/01/24 08:57:19;;;;;;;27.23;6.43;;;12.50;84.60;;;;;;782155;176;26481;-82
2024/01/24 08:59:46;;;;;;;49.73;7.57;;;12.50;83.20;;;;;;780724;177;26489;-80
2024/01/24 09:02:13;;;;;;;34.87;7.47;;;12.50;84.60;;;;;;780037;180;26482;-80
2024/01/24 09:04:40;;;;;;;48.90;8.07;;;12.40;83.60;;;;;;780893;181;26480;-81
2024/01/24 09:07:06;;;;;;;47.97;7.20;;;12.40;84.20;;;;;;773879;182;27038;-81
2024/01/24 09:09:34;;;;;;;45.70;7.67;;;12.50;84.20;;;;;;778524;181;26479;-81
2024/01/24 09:11:59;;;;;;;39.53;7.20;;;12.50;83.50;;;;;;777278;178;26478;-81
2024/01/24 09:14:26;;;;;;;43.73;7.20;;;12.50;82.90;;;;;;776413;183;26489;-81
2024/01/24 09:16:52;;;;;;;27.00;5.17;;;12.50;84.30;;;;;;778105;180;27166;-80
2024/01/24 09:19:20;;;;;;;52.97;8.37;;;12.50;83.40;;;;;;776915;183;26479;-80
2024/01/24 09:21:46;;;;;;;46.90;6.90;;;12.50;83.20;;;;;;776758;183;26485;-79
2024/01/24 09:24:12;;;;;;;33.87;6.87;;;12.50;83.60;;;;;;777792;183;26496;-79
2024/01/24 09:26:39;;;;;;;49.60;7.20;;;12.50;83.20;;;;;;779924;180;26510;-82
2024/01/24 09:29:05;;;;;;;63.33;14.07;;;12.50;83.50;;;;;;777849;183;26473;-80
2024/01/24 09:31:32;;;;;;;53.63;11.97;;;12.40;83.50;;;;;;780409;183;26519;-78
2024/01/24 09:33:59;;;;;;;48.23;10.33;;;12.40;83.40;;;;;;778766;183;26503;-81
2024/01/24 09:36:27;;;;;;;57.93;14.37;;;12.50;83.60;;;;;;779678;180;27141;-80
2024/01/24 09:38:53;;;;;;;50.90;9.20;;;12.50;83.00;;;;;;778452;183;26465;-80
2024/01/24 09:41:19;;;;;;;57.93;10.97;;;12.50;82.90;;;;;;781911;183;26521;-82
2024/01/24 09:43:47;;;;;;;51.13;8.20;;;12.40;83.90;;;;;;777284;183;26465;-80
2024/01/24 09:46:13;;;;;;;56.83;9.03;;;12.30;83.80;;;;;;773725;183;27052;-77
2024/01/24 09:48:39;;;;;;;31.80;6.10;;;12.50;82.80;;;;;;780385;183;27177;-81
2024/01/24 09:51:06;;;;;;;38.83;7.40;;;12.50;82.10;;;;;;773927;183;26481;-81
2024/01/24 09:53:33;;;;;;;58.63;8.80;;;12.60;81.70;;;;;;779055;183;26479;-78
2024/01/24 09:55:59;;;;;;;47.60;8.40;;;12.60;81.60;;;;;;780798;179;26495;-79
2024/01/24 09:58:26;;;;;;;58.97;8.13;;;12.60;81.40;;;;;;775334;183;26509;-80
2024/01/24 10:00:53;;;;;;;44.27;8.40;;;12.60;82.30;;;;;;779356;181;26478;-80
2024/01/24 10:03:20;;;;;;;51.20;9.50;;;12.60;79.80;;;;;;782415;181;26513;-80
2024/01/24 10:05:46;;;;;;;50.13;8.57;;;12.70;78.60;;;;;;782444;180;26485;-78
2024/01/24 10:08:15;;;;;;;43.57;7.07;;;12.70;79.30;;;;;;779862;183;27020;-80
2024/01/24 10:10:41;;;;;;;49.30;9.27;;;12.70;78.20;;;;;;779938;180;26466;-79
2024/01/24 10:13:07;;;;;;;54.87;8.37;;;12.70;78.80;;;;;;779501;181;26486;-82
2024/01/24 10:15:33;;;;;;;77.17;18.67;;;12.60;78.00;;;;;;780542;183;26609;-78
2024/01/24 10:18:00;;;;;;;95.17;26.77;;;12.60;80.50;;;;;;780444;180;26487;-80
2024/01/24 10:20:27;;;;;;;81.27;20.90;;;12.70;77.30;;;;;;780454;184;27750;-81
2024/01/24 10:22:54;;;;;;;35.27;7.23;;;12.70;76.10;;;;;;779990;181;26480;-79
2024/01/24 10:25:20;;;;;;;87.67;23.90;;;12.70;76.20;;;;;;778105;181;26478;-80
2024/01/24 10:27:47;;;;;;;170.57;43.80;;;12.80;76.30;;;;;;778183;180;26511;-80
2024/01/24 10:30:15;;;;;;;116.83;28.27;;;12.90;75.90;;;;;;779010;180;26485;-81
2024/01/24 10:32:43;;;;;;;75.23;17.47;;;12.90;77.70;;;;;;775511;183;27010;-80
2024/01/24 10:35:10;;;;;;;70.10;13.53;;;13.00;76.60;;;;;;778237;183;26485;-80
2024/01/24 10:37:36;;;;;;;83.57;22.10;;;12.90;75.60;;;;;;780397;180;27279;-81
2024/01/24 10:40:05;;;;;;;81.50;19.83;;;12.90;75.70;;;;;;775802;184;26478;-80
2024/01/24 10:42:30;;;;;;;47.03;9.27;;;12.90;78.60;;;;;;774848;183;26474;-80
2024/01/24 10:44:57;;;;;;;42.43;9.23;;;12.90;75.20;;;;;;774295;183;27092;-81
2024/01/24 10:47:24;;;;;;;45.67;8.50;;;12.90;75.30;;;;;;778686;181;27058;-80
2024/01/24 10:49:51;;;;;;;105.67;26.60;;;12.80;76.60;;;;;;775123;183;26522;-80
2024/01/24 10:52:17;;;;;;;91.60;25.07;;;12.80;77.20;;;;;;778752;181;26484;-81
2024/01/24 10:54:44;;;;;;;76.87;18.53;;;12.90;78.00;;;;;;775466;183;26491;-79
2024/01/24 10:57:14;;;;;;;24.93;6.73;;;12.80;77.00;;;;;;778972;183;26522;-77
2024/01/24 10:59:38;;;;;;;55.63;12.23;;;12.60;76.20;;;;;;778293;183;26472;-80
2024/01/24 11:02:04;;;;;;;58.03;9.53;;;12.60;77.20;;;;;;779513;183;26500;-81
2024/01/24 11:04:31;;;;;;;56.00;7.60;;;12.70;77.40;;;;;;778430;183;26487;-79
2024/01/24 11:06:58;;;;;;;43.50;7.37;;;12.70;77.40;;;;;;774046;181;26501;-79
2024/01/24 11:09:27;;;;;;;47.93;9.00;;;12.70;76.20;;;;;;778310;183;26517;-80
2024/01/24 11:11:54;;;;;;;51.33;10.47;;;12.70;76.00;;;;;;768002;183;26497;-80
2024/01/24 11:14:33;;;;;;;45.70;8.87;;;12.80;78.60;;;;;;776848;183;26520;-82
2024/01/24 11:16:59;;;;;;;61.03;13.90;;;12.90;75.50;;;;;;776775;183;26545;-79
2024/01/24 11:19:27;;;;;;;56.27;11.93;;;12.90;77.50;;;;;;780283;183;26468;-79
2024/01/24 11:21:53;;;;;;;45.90;9.53;;;12.90;75.20;;;;;;778224;182;26492;-79
2024/01/24 11:24:32;;;;;;;58.60;16.43;;;12.90;76.40;;;;;;781030;180;26461;-79
2024/01/24 11:26:59;;;;;;;43.73;8.20;;;12.90;75.20;;;;;;781137;179;26637;-79
2024/01/24 11:29:25;;;;;;;58.37;11.90;;;12.80;75.70;;;;;;779752;183;26464;-81
2024/01/24 11:31:52;;;;;;;78.77;20.73;;;12.70;75.50;;;;;;779619;183;26487;-79
2024/01/24 11:34:19;;;;;;;57.30;13.93;;;12.70;75.70;;;;;;779722;181;26474;-79
2024/01/24 11:36:48;;;;;;;51.43;12.07;;;12.70;75.30;;;;;;777780;179;26486;-79
2024/01/24 11:39:26;;;;;;;78.17;21.93;;;12.80;76.10;;;;;;780717;184;27068;-79
2024/01/24 11:41:53;;;;;;;57.73;11.47;;;13.10;73.70;;;;;;778936;184;26468;-79
2024/01/24 11:44:20;;;;;;;115.93;32.10;;;13.00;74.50;;;;;;776539;181;26492;-79
2024/01/24 11:46:46;;;;;;;45.60;11.63;;;13.10;76.20;;;;;;773375;180;27026;-79
2024/01/24 11:49:13;;;;;;;51.03;9.97;;;13.10;73.80;;;;;;776460;183;26471;-79
2024/01/24 11:51:40;;;;;;;48.03;8.83;;;13.00;74.00;;;;;;778383;180;26464;-80
2024/01/24 11:54:07;;;;;;;43.73;9.20;;;13.00;74.60;;;;;;776728;183;26476;-81
2024/01/24 11:56:36;;;;;;;45.67;8.43;;;13.10;74.20;;;;;;775997;179;26515;-81
2024/01/24 11:59:01;;;;;;;50.20;10.07;;;13.20;72.60;;;;;;776102;183;26495;-79
2024/01/24 12:01:28;;;;;;;58.63;13.27;;;13.10;72.90;;;;;;774285;183;26485;-80
2024/01/24 12:03:55;;;;;;;54.07;10.73;;;13.30;72.80;;;;;;777672;183;26471;-79
2024/01/24 12:06:21;;;;;;;42.40;8.83;;;14.00;70.60;;;;;;774475;183;26492;-79
2024/01/24 12:08:48;;;;;;;38.13;7.37;;;14.00;69.90;;;;;;775542;183;26467;-77
2024/01/24 12:11:15;;;;;;;49.10;8.73;;;15.00;67.90;;;;;;779317;183;26495;-79
2024/01/24 12:13:42;;;;;;;52.33;9.87;;;15.30;65.80;;;;;;779017;183;26636;-80
2024/01/24 12:16:08;;;;;;;50.07;9.20;;;14.60;65.70;;;;;;774749;181;26541;-80
2024/01/24 12:18:36;;;;;;;55.27;13.73;;;14.00;69.00;;;;;;776164;183;26502;-77
2024/01/24 12:21:08;;;;;;;62.33;14.13;;;13.80;70.00;;;;;;773633;184;26508;-81
2024/01/24 12:23:30;;;;;;;66.90;17.67;;;14.00;69.90;;;;;;777292;184;26490;-79
2024/01/24 12:25:56;;;;;;;56.03;8.93;;;14.20;70.10;;;;;;780160;183;26477;-79
2024/01/24 12:28:23;;;;;;;39.33;7.60;;;13.90;69.10;;;;;;796757;176;26462;-80
2024/01/24 12:30:50;;;;;;;38.50;7.73;;;13.70;70.30;;;;;;799553;178;26459;-80
2024/01/24 12:33:16;;;;;;;65.93;13.97;;;13.90;70.00;;;;;;805147;176;27010;-79
2024/01/24 12:35:46;;;;;;;52.93;8.83;;;14.00;68.90;;;;;;802639;176;26433;-84
2024/01/24 12:38:12;;;;;;;27.43;5.37;;;13.60;70.90;;;;;;811035;177;26466;-80